Time;durP1;ratioP1;P1;durP2;ratioP2;P2;SDS_P1;SDS_P2;PMS_P1;PMS_P2;Temp;Humidity;BMP_temperature;BMP_pressure;BME280_temperature;BME280_humidity;BME280_pressure;Samples;Min_cycle;Max_cycle;Signal;HPM_P1;HPM_P2
2021/03/29 00:01:52;;;;;;;;;;;;;;;12.51;47.75;102426.50;5075612;28;19925;-80
2021/03/29 00:04:20;;;;;;;;;;;;;;;12.61;47.53;102423.66;5041809;28;19925;-78
2021/03/29 00:06:50;;;;;;;;;;;;;;;12.51;47.74;102418.22;5057342;28;19931;-77
2021/03/29 00:09:20;;;;;;;;;;;;;;;12.55;47.61;102429.53;5056409;28;20039;-80
2021/03/29 00:11:46;;;;;;;;;;;;;;;12.54;47.68;102428.69;5072866;28;19995;-82
2021/03/29 00:14:16;;;;;;;;;;;;;;;12.54;47.49;102428.69;5073389;28;19924;-80
2021/03/29 00:20:51;;;;;;;;;;;;;;;12.30;48.22;102422.19;5081861;28;19921;-84
2021/03/29 00:23:20;;;;;;;;;;;;;;;12.19;48.76;102420.56;5086463;28;19930;-80
2021/03/29 00:25:52;;;;;;;;;;;;;;;12.40;48.37;102424.88;5056120;28;19924;-81
2021/03/29 00:28:24;;;;;;;;;;;;;;;12.17;48.66;102431.06;5056875;28;20352;-80
2021/03/29 00:30:57;;;;;;;;;;;;;;;12.36;48.10;102432.13;5073239;28;19928;-81
2021/03/29 00:33:24;;;;;;;;;;;;;;;12.34;47.95;102431.56;5039526;28;19932;-80
2021/03/29 00:35:51;;;;;;;;;;;;;;;12.49;47.50;102437.00;5057373;28;19925;-81
2021/03/29 00:38:18;;;;;;;;;;;;;;;12.38;47.79;102433.47;5022873;28;19928;-80
2021/03/29 00:40:49;;;;;;;;;;;;;;;12.15;48.21;102428.59;5056393;28;19943;-74
2021/03/29 00:43:25;;;;;;;;;;;;;;;12.11;48.33;102427.53;5072694;28;20274;-77
2021/03/29 00:45:55;;;;;;;;;;;;;;;12.17;48.35;102428.31;5040193;28;19999;-74
2021/03/29 00:48:22;;;;;;;;;;;;;;;12.01;48.64;102423.97;5055724;28;19924;-76
2021/03/29 00:51:01;;;;;;;;;;;;;;;12.16;48.29;102413.69;5041789;28;19931;-78
2021/03/29 00:53:31;;;;;;;;;;;;;;;12.30;47.88;102417.50;5088434;28;20288;-80
2021/03/29 00:55:59;;;;;;;;;;;;;;;12.47;47.46;102411.59;5038230;28;19929;-80
2021/03/29 00:58:28;;;;;;;;;;;;;;;12.24;47.96;102417.78;5054379;28;19928;-79
2021/03/29 01:00:59;;;;;;;;;;;;;;;12.24;48.03;102420.53;5039528;28;19935;-80
2021/03/29 01:03:27;;;;;;;;;;;;;;;12.42;47.44;102417.97;5055409;28;19932;-78
2021/03/29 01:05:56;;;;;;;;;;;;;;;12.27;47.66;102418.03;5055344;28;19924;-79
2021/03/29 01:08:23;;;;;;;;;;;;;;;12.30;47.75;102420.25;5073082;28;19933;-81
2021/03/29 01:10:50;;;;;;;;;;;;;;;12.41;47.24;102421.84;5055735;28;19932;-80
2021/03/29 01:13:18;;;;;;;;;;;;;;;12.48;47.04;102416.81;5072682;28;19925;-81
2021/03/29 01:15:45;;;;;;;;;;;;;;;12.50;46.61;102418.50;5072931;28;19925;-82
2021/03/29 01:18:13;;;;;;;;;;;;;;;12.57;46.77;102419.81;5039266;28;19924;-81
2021/03/29 01:20:39;;;;;;;;;;;;;;;12.45;46.92;102422.94;5055063;28;19931;-80
2021/03/29 01:23:06;;;;;;;;;;;;;;;12.62;46.62;102422.56;5055711;28;19932;-76
2021/03/29 01:25:39;;;;;;;;;;;;;;;12.64;46.49;102419.53;5073027;28;19924;-76
2021/03/29 01:28:16;;;;;;;;;;;;;;;12.61;46.64;102423.66;5057210;28;20002;-73
2021/03/29 01:30:44;;;;;;;;;;;;;;;12.62;46.47;102421.75;5055371;28;19925;-78
2021/03/29 01:33:10;;;;;;;;;;;;;;;12.29;46.74;102421.34;5055850;28;19924;-82
2021/03/29 01:35:42;;;;;;;;;;;;;;;12.03;47.81;102419.00;5038346;28;19929;-80
2021/03/29 01:38:09;;;;;;;;;;;;;;;12.35;46.94;102411.94;5072377;28;19924;-80
2021/03/29 01:40:36;;;;;;;;;;;;;;;12.48;46.29;102414.06;5055387;28;19944;-80
2021/03/29 01:43:06;;;;;;;;;;;;;;;12.43;46.43;102413.25;5072104;28;20380;-81
2021/03/29 01:45:33;;;;;;;;;;;;;;;12.25;46.82;102406.47;5038190;28;19925;-76
2021/03/29 01:48:00;;;;;;;;;;;;;;;12.12;47.31;102415.34;5072829;28;19931;-81
2021/03/29 01:50:28;;;;;;;;;;;;;;;12.13;47.12;102416.19;5055184;28;19932;-81
2021/03/29 01:52:57;;;;;;;;;;;;;;;12.12;47.11;102414.50;5054546;28;20403;-76
2021/03/29 01:55:42;;;;;;;;;;;;;;;12.21;47.09;102415.59;5057980;28;19924;-75
2021/03/29 01:58:10;;;;;;;;;;;;;;;12.10;47.17;102412.03;5055078;28;19924;-79
2021/03/29 02:05:05;;;;;;;;;;;;;;;12.21;46.88;102415.59;5072265;28;20394;-75
2021/03/29 02:07:32;;;;;;;;;;;;;;;11.99;47.58;102407.69;5074244;28;19924;-78
2021/03/29 02:09:59;;;;;;;;;;;;;;;11.90;46.82;102409.38;5075976;28;19928;-76
2021/03/29 02:12:25;;;;;;;;;;;;;;;12.41;45.74;102409.97;5074709;28;19931;-75
2021/03/29 02:14:52;;;;;;;;;;;;;;;12.21;46.09;102415.59;5058264;28;19925;-80
2021/03/29 02:21:38;;;;;;;;;;;;;;;12.24;46.12;102413.09;5076125;28;19944;-79
2021/03/29 02:24:05;;;;;;;;;;;;;;;12.28;46.14;102424.41;5058409;28;20042;-79
2021/03/29 02:26:39;;;;;;;;;;;;;;;12.26;46.16;102421.09;5075891;28;20372;-77
2021/03/29 02:29:07;;;;;;;;;;;;;;;12.05;47.05;102425.03;5042527;28;20344;-76
2021/03/29 02:31:37;;;;;;;;;;;;;;;11.87;47.67;102417.38;5058794;28;19940;-81
2021/03/29 02:34:08;;;;;;;;;;;;;;;11.77;48.00;102423.75;5059209;28;19928;-78
2021/03/29 02:36:38;;;;;;;;;;;;;;;11.90;48.15;102419.56;5076313;28;19935;-79
2021/03/29 02:39:05;;;;;;;;;;;;;;;11.66;48.58;102424.06;5058421;28;19925;-77
2021/03/29 02:41:32;;;;;;;;;;;;;;;11.72;48.52;102425.69;5057503;28;19925;-80
2021/03/29 02:43:59;;;;;;;;;;;;;;;11.95;48.18;102422.31;5077729;28;19931;-81
2021/03/29 02:46:27;;;;;;;;;;;;;;;11.82;48.34;102415.44;5058779;28;19924;-70
2021/03/29 02:48:54;;;;;;;;;;;;;;;11.55;49.38;102427.91;5075572;28;19991;-73
2021/03/29 02:51:21;;;;;;;;;;;;;;;11.67;49.15;102429.28;5057801;28;19924;-75
2021/03/29 02:53:56;;;;;;;;;;;;;;;11.47;49.46;102423.78;5075252;28;19929;-76
2021/03/29 02:56:42;;;;;;;;;;;;;;;11.65;49.00;102422.38;5057759;28;19931;-77
2021/03/29 02:59:11;;;;;;;;;;;;;;;11.39;49.83;102427.09;5057500;28;19924;-74
2021/03/29 03:01:38;;;;;;;;;;;;;;;11.46;49.86;102433.16;5075080;28;20244;-74
2021/03/29 03:04:09;;;;;;;;;;;;;;;11.56;49.28;102429.56;5057249;28;19924;-76
2021/03/29 03:06:36;;;;;;;;;;;;;;;11.56;49.42;102437.84;5080662;28;19931;-79
2021/03/29 03:09:05;;;;;;;;;;;;;;;11.59;49.16;102438.13;5063428;28;19925;-79
2021/03/29 03:11:33;;;;;;;;;;;;;;;11.49;49.46;102429.84;5076645;28;20283;-82
2021/03/29 03:14:03;;;;;;;;;;;;;;;11.55;49.38;102427.91;5074795;28;19932;-72
2021/03/29 03:16:35;;;;;;;;;;;;;;;11.61;49.42;102432.31;5042098;28;20283;-70
2021/03/29 03:19:03;;;;;;;;;;;;;;;11.79;48.90;102431.75;5056461;28;20310;-75
2021/03/29 03:21:31;;;;;;;;;;;;;;;11.80;48.89;102425.94;5074701;28;19931;-73
2021/03/29 03:23:58;;;;;;;;;;;;;;;11.50;49.49;102419.63;5073975;28;19929;-73
2021/03/29 03:26:39;;;;;;;;;;;;;;;11.53;49.58;102430.94;5074953;28;19925;-74
2021/03/29 03:29:06;;;;;;;;;;;;;;;11.53;49.46;102428.19;5075091;28;19924;-76
2021/03/29 03:31:36;;;;;;;;;;;;;;;11.53;49.32;102427.34;5074973;28;20378;-78
2021/03/29 03:38:25;;;;;;;;;;;;;;;11.06;50.87;102419.38;5074767;28;19928;-75
2021/03/29 03:40:58;;;;;;;;;;;;;;;11.08;50.76;102425.44;5056397;28;19947;-75
2021/03/29 03:43:26;;;;;;;;;;;;;;;11.16;50.63;102419.38;5074023;28;19925;-79
2021/03/29 03:46:00;;;;;;;;;;;;;;;11.31;50.14;102411.91;5041137;28;19924;-74
2021/03/29 03:48:27;;;;;;;;;;;;;;;11.14;50.52;102416.09;5074322;28;19925;-76
2021/03/29 03:50:54;;;;;;;;;;;;;;;11.15;50.37;102413.06;5076061;28;19924;-81
2021/03/29 03:53:21;;;;;;;;;;;;;;;11.27;50.02;102416.34;5059236;28;19925;-76
2021/03/29 03:55:52;;;;;;;;;;;;;;;11.06;50.63;102413.88;5061473;28;19936;-82
2021/03/29 03:58:19;;;;;;;;;;;;;;;11.05;50.76;102415.78;5046388;28;19928;-80
2021/03/29 04:00:46;;;;;;;;;;;;;;;10.88;51.39;102412.47;5057416;28;19931;-80
2021/03/29 04:03:14;;;;;;;;;;;;;;;11.02;50.79;102413.59;5074823;28;19947;-81
2021/03/29 04:05:41;;;;;;;;;;;;;;;10.87;51.24;102415.50;5074020;28;19924;-81
2021/03/29 04:08:33;;;;;;;;;;;;;;;10.91;51.20;102413.88;5074773;28;19924;-77
2021/03/29 04:11:05;;;;;;;;;;;;;;;10.86;51.34;102420.19;5074163;28;19948;-80
2021/03/29 04:13:31;;;;;;;;;;;;;;;10.85;51.46;102424.06;5073817;28;19931;-79
2021/03/29 04:15:59;;;;;;;;;;;;;;;10.56;52.27;102416.56;5074078;28;20303;-79
2021/03/29 04:18:27;;;;;;;;;;;;;;;10.44;52.94;102414.06;5073542;28;19925;-81
2021/03/29 04:20:54;;;;;;;;;;;;;;;10.10;54.04;102413.66;5073722;28;20272;-81
2021/03/29 04:23:34;;;;;;;;;;;;;;;10.12;54.56;102418.88;5057948;28;19925;-79
2021/03/29 04:26:04;;;;;;;;;;;;;;;10.31;53.84;102410.97;5073765;28;20263;-81
2021/03/29 04:28:31;;;;;;;;;;;;;;;10.19;54.11;102420.31;5073802;28;19924;-81
2021/03/29 04:31:01;;;;;;;;;;;;;;;10.15;54.39;102418.34;5073638;28;19925;-80
2021/03/29 04:33:28;;;;;;;;;;;;;;;10.20;54.19;102418.34;5073880;28;19924;-79
2021/03/29 04:35:55;;;;;;;;;;;;;;;10.15;54.58;102423.84;5074172;28;19933;-80
2021/03/29 04:38:40;;;;;;;;;;;;;;;10.09;54.65;102422.19;5081024;28;19924;-79
2021/03/29 04:41:07;;;;;;;;;;;;;;;10.08;54.59;102412.22;5073491;28;20314;-80
2021/03/29 04:43:34;;;;;;;;;;;;;;;10.06;54.86;102415.25;5073491;28;19924;-76
2021/03/29 04:46:07;;;;;;;;;;;;;;;10.19;54.43;102412.03;5056425;28;19924;-81
2021/03/29 04:48:34;;;;;;;;;;;;;;;10.12;54.75;102416.13;5051022;28;19932;-80
2021/03/29 04:51:00;;;;;;;;;;;;;;;9.99;54.96;102427.59;5073692;28;19925;-79
2021/03/29 04:53:27;;;;;;;;;;;;;;;9.99;55.10;102424.84;5073317;28;19931;-82
2021/03/29 04:55:56;;;;;;;;;;;;;;;9.83;55.93;102414.88;5055914;28;19947;-78
2021/03/29 04:58:23;;;;;;;;;;;;;;;9.96;55.43;102426.22;5073690;28;19935;-80
2021/03/29 05:00:49;;;;;;;;;;;;;;;10.05;55.06;102421.03;5073323;28;19929;-80
2021/03/29 05:03:16;;;;;;;;;;;;;;;9.96;55.30;102414.38;5054884;28;20284;-80
2021/03/29 05:05:43;;;;;;;;;;;;;;;9.96;55.19;102412.47;5073873;28;19924;-79
2021/03/29 05:08:10;;;;;;;;;;;;;;;9.83;55.70;102420.38;5073236;28;19932;-73
2021/03/29 05:10:40;;;;;;;;;;;;;;;9.84;55.38;102420.09;5073697;28;19925;-79
2021/03/29 05:13:07;;;;;;;;;;;;;;;9.90;55.29;102419.03;5057050;28;20404;-77
2021/03/29 05:15:34;;;;;;;;;;;;;;;9.97;55.37;102424.31;5055907;28;19932;-78
2021/03/29 05:18:04;;;;;;;;;;;;;;;9.78;55.66;102420.34;5055777;28;19924;-72
2021/03/29 05:20:31;;;;;;;;;;;;;;;9.80;55.83;102418.97;5073289;28;20414;-77
2021/03/29 05:22:58;;;;;;;;;;;;;;;9.75;56.07;102420.88;5054850;28;19931;-81
2021/03/29 05:25:25;;;;;;;;;;;;;;;9.88;55.60;102420.41;5055545;28;20279;-80
2021/03/29 05:27:54;;;;;;;;;;;;;;;9.84;55.75;102422.03;5073117;28;19947;-79
2021/03/29 05:30:22;;;;;;;;;;;;;;;9.82;55.99;102429.72;5072721;28;19931;-72
2021/03/29 05:32:49;;;;;;;;;;;;;;;9.79;56.12;102425.59;5072281;28;19928;-71
2021/03/29 05:39:29;;;;;;;;;;;;;;;9.39;57.47;102433.56;5072813;28;19921;-77
2021/03/29 05:42:01;;;;;;;;;;;;;;;9.51;57.31;102436.97;5056569;28;19928;-73
2021/03/29 05:44:27;;;;;;;;;;;;;;;9.64;56.84;102435.69;5076909;28;20108;-73
2021/03/29 05:46:54;;;;;;;;;;;;;;;9.63;56.32;102434.84;5077091;28;19932;-75
2021/03/29 05:49:27;;;;;;;;;;;;;;;9.75;56.27;102442.88;5059712;28;19931;-71
2021/03/29 05:51:53;;;;;;;;;;;;;;;9.45;57.01;102445.44;5058527;28;19931;-82
2021/03/29 05:54:20;;;;;;;;;;;;;;;9.53;56.83;102444.94;5059901;28;19936;-82
2021/03/29 05:56:49;;;;;;;;;;;;;;;9.62;56.60;102440.59;5076984;28;20380;-81
2021/03/29 06:01:53;;;;;;;;;;;;;;;9.65;56.48;102451.91;5076754;28;19925;-80
2021/03/29 06:04:38;;;;;;;;;;;;;;;9.54;57.01;102452.94;5076620;28;19935;-82
2021/03/29 06:07:18;;;;;;;;;;;;;;;9.62;56.64;102460.72;5076235;28;20356;-81
2021/03/29 06:09:46;;;;;;;;;;;;;;;9.81;56.10;102459.19;5076841;28;19931;-81
2021/03/29 06:12:17;;;;;;;;;;;;;;;9.79;56.10;102457.78;5058986;28;19924;-81
2021/03/29 06:14:48;;;;;;;;;;;;;;;9.66;56.46;102458.25;5077570;28;19932;-79
2021/03/29 06:17:20;;;;;;;;;;;;;;;9.79;56.15;102464.13;5059949;28;19929;-78
2021/03/29 06:20:00;;;;;;;;;;;;;;;9.73;56.28;102459.66;5076151;28;19924;-82
2021/03/29 06:22:28;;;;;;;;;;;;;;;9.38;57.40;102464.91;5075508;28;19924;-80
2021/03/29 06:24:58;;;;;;;;;;;;;;;9.56;56.80;102467.25;5077155;28;19925;-82
2021/03/29 06:27:25;;;;;;;;;;;;;;;9.63;56.96;102475.28;5041350;28;19932;-79
2021/03/29 06:30:10;;;;;;;;;;;;;;;9.65;56.80;102462.91;5075905;28;19931;-79
2021/03/29 06:32:37;;;;;;;;;;;;;;;9.84;56.08;102468.81;5075568;28;19925;-79
2021/03/29 06:35:19;;;;;;;;;;;;;;;9.63;56.57;102473.34;5075839;28;19936;-80
2021/03/29 06:37:46;;;;;;;;;;;;;;;9.84;55.77;102471.56;5057857;28;19932;-80
2021/03/29 06:40:12;;;;;;;;;;;;;;;9.97;55.61;102465.59;5058018;28;19925;-77
2021/03/29 06:42:39;;;;;;;;;;;;;;;9.89;55.68;102466.91;5075202;28;19931;-77
2021/03/29 06:45:15;;;;;;;;;;;;;;;9.81;56.17;102470.19;5075682;28;19924;-73
2021/03/29 06:47:43;;;;;;;;;;;;;;;9.92;55.82;102469.13;5057537;28;19947;-79
2021/03/29 06:50:26;;;;;;;;;;;;;;;10.08;55.25;102465.41;5075779;28;19924;-80
2021/03/29 06:52:58;;;;;;;;;;;;;;;10.25;54.83;102481.75;5057174;28;19924;-80
2021/03/29 06:55:26;;;;;;;;;;;;;;;10.16;54.82;102481.41;5075794;28;19935;-78
2021/03/29 06:57:59;;;;;;;;;;;;;;;10.23;54.69;102479.22;5075603;28;19932;-76
2021/03/29 07:00:27;;;;;;;;;;;;;;;10.01;55.19;102483.22;5057117;28;19925;-78
2021/03/29 07:02:54;;;;;;;;;;;;;;;10.13;54.93;102487.44;5057505;28;19925;-80
2021/03/29 07:05:25;;;;;;;;;;;;;;;10.40;54.64;102491.97;5057610;28;19935;-76
2021/03/29 07:07:52;;;;;;;;;;;;;;;10.41;54.26;102483.44;5074877;28;19929;-80
2021/03/29 07:10:19;;;;;;;;;;;;;;;10.39;53.94;102491.16;5075105;28;19925;-76
2021/03/29 07:12:46;;;;;;;;;;;;;;;10.47;53.93;102489.81;5074573;28;20283;-80
2021/03/29 07:15:14;;;;;;;;;;;;;;;10.42;53.78;102493.38;5057373;28;19925;-77
2021/03/29 07:17:42;;;;;;;;;;;;;;;10.46;53.48;102485.41;5075606;28;19924;-73
2021/03/29 07:20:10;;;;;;;;;;;;;;;10.56;53.32;102490.94;5056242;28;19931;-79
2021/03/29 07:22:41;;;;;;;;;;;;;;;10.55;53.17;102489.31;5075099;28;19932;-78
2021/03/29 07:25:12;;;;;;;;;;;;;;;10.74;52.61;102493.22;5064132;28;19924;-81
2021/03/29 07:27:43;;;;;;;;;;;;;;;10.83;52.45;102500.69;5075073;28;19928;-81
2021/03/29 07:30:15;;;;;;;;;;;;;;;10.80;52.49;102495.72;5057483;28;19929;-79
2021/03/29 07:33:09;;;;;;;;;;;;;;;11.05;51.86;102495.75;5029413;28;19931;-78
2021/03/29 07:35:43;;;;;;;;;;;;;;;11.16;51.50;102499.34;5074918;28;19924;-81
2021/03/29 07:38:13;;;;;;;;;;;;;;;10.98;52.25;102492.44;5074355;28;19924;-73
2021/03/29 07:40:41;;;;;;;;;;;;;;;11.34;51.94;102494.16;5056312;28;19924;-74
2021/03/29 07:43:12;;;;;;;;;;;;;;;11.66;51.05;102496.66;5074183;28;19925;-72
2021/03/29 07:45:50;;;;;;;;;;;;;;;11.94;49.88;102498.00;5074284;28;19924;-72
2021/03/29 07:48:36;;;;;;;;;;;;;;;11.79;49.75;102495.25;5071877;28;19924;-73
2021/03/29 07:51:12;;;;;;;;;;;;;;;11.66;49.53;102487.53;5031864;28;19928;-75
2021/03/29 07:53:52;;;;;;;;;;;;;;;11.66;49.61;102487.53;5059927;28;19924;-78
2021/03/29 07:56:29;;;;;;;;;;;;;;;11.90;49.28;102491.38;5077995;28;19925;-80
2021/03/29 07:59:07;;;;;;;;;;;;;;;11.83;48.62;102493.59;5077149;28;20359;-80
2021/03/29 08:01:59;;;;;;;;;;;;;;;11.96;48.85;102495.78;5076446;28;19932;-80
2021/03/29 08:04:47;;;;;;;;;;;;;;;11.91;48.86;102504.88;5074468;28;19924;-80
2021/03/29 08:07:38;;;;;;;;;;;;;;;12.21;48.01;102498.47;5074447;28;19935;-78
2021/03/29 08:10:47;;;;;;;;;;;;;;;12.25;48.41;102516.16;5066533;28;19932;-80
2021/03/29 08:13:48;;;;;;;;;;;;;;;12.64;47.00;102514.31;5060180;28;20319;-76
2021/03/29 08:16:16;;;;;;;;;;;;;;;12.71;46.61;102517.59;5075494;28;20390;-79
2021/03/29 08:19:09;;;;;;;;;;;;;;;12.65;46.83;102515.16;5056802;28;19925;-76
2021/03/29 08:25:41;;;;;;;;;;;;;;;12.77;46.63;102513.72;5055144;28;19935;-78
2021/03/29 08:28:12;;;;;;;;;;;;;;;12.79;46.69;102521.72;5055236;28;19935;-78
2021/03/29 08:30:41;;;;;;;;;;;;;;;13.04;46.14;102522.44;5054010;28;19948;-78
2021/03/29 08:33:13;;;;;;;;;;;;;;;13.06;45.74;102522.97;5053770;28;19932;-79
2021/03/29 08:40:09;;;;;;;;;;;;;;;13.31;45.36;102528.34;5054112;28;19925;-81
2021/03/29 08:42:37;;;;;;;;;;;;;;;13.23;45.57;102534.47;5035807;28;19924;-82
2021/03/29 08:45:08;;;;;;;;;;;;;;;13.38;45.40;102536.31;5047827;28;19925;-83
2021/03/29 08:47:38;;;;;;;;;;;;;;;13.59;45.21;102540.59;5053461;28;19932;-81
2021/03/29 08:50:13;;;;;;;;;;;;;;;13.63;44.71;102549.16;5053181;28;19925;-75
2021/03/29 08:57:10;;;;;;;;;;;;;;;13.79;44.57;102543.16;5053777;28;19925;-76
2021/03/29 08:59:38;;;;;;;;;;;;;;;14.05;44.20;102546.56;5053732;28;19924;-75
2021/03/29 09:02:17;;;;;;;;;;;;;;;14.20;43.89;102543.63;5052596;28;19925;-75
2021/03/29 09:05:07;;;;;;;;;;;;;;;14.22;43.68;102536.66;5046379;28;19928;-77
2021/03/29 09:07:43;;;;;;;;;;;;;;;14.19;43.68;102541.97;5057287;28;19931;-76
2021/03/29 09:10:14;;;;;;;;;;;;;;;14.42;43.39;102552.25;5037604;28;20315;-77
2021/03/29 09:12:42;;;;;;;;;;;;;;;14.51;43.29;102547.72;5040960;28;19936;-76
2021/03/29 09:15:13;;;;;;;;;;;;;;;14.77;42.59;102543.50;5061461;28;19925;-80
2021/03/29 09:17:41;;;;;;;;;;;;;;;14.83;42.51;102541.50;5062513;28;19925;-78
2021/03/29 09:20:21;;;;;;;;;;;;;;;15.05;42.03;102545.34;5057438;28;19932;-74
2021/03/29 09:22:51;;;;;;;;;;;;;;;15.27;41.50;102547.53;5061542;28;19924;-78
2021/03/29 09:25:21;;;;;;;;;;;;;;;15.14;41.43;102543.56;5077482;28;20387;-77
2021/03/29 09:31:15;;;;;;;;;;;;;;;15.37;41.56;102544.59;4999841;28;19933;-78
2021/03/29 09:33:42;;;;;;;;;;;;;;;15.46;40.94;102543.63;5000072;28;19929;-77
2021/03/29 09:40:03;;;;;;;;;;;;;;;15.57;40.54;102553.47;5014709;28;19932;-74
2021/03/29 09:42:44;;;;;;;;;;;;;;;15.74;40.18;102556.50;5015365;28;20381;-76
2021/03/29 09:45:34;;;;;;;;;;;;;;;16.14;39.30;102549.44;4996676;28;20277;-79
2021/03/29 09:48:01;;;;;;;;;;;;;;;16.06;39.57;102558.47;5001543;28;20018;-79
2021/03/29 09:50:32;;;;;;;;;;;;;;;16.30;39.04;102549.97;5020006;28;19932;-80
2021/03/29 09:53:11;;;;;;;;;;;;;;;16.17;39.49;102556.31;5018217;28;20281;-79
2021/03/29 09:55:44;;;;;;;;;;;;;;;16.28;39.03;102566.13;5016797;28;20285;-76
2021/03/29 09:58:18;;;;;;;;;;;;;;;16.13;39.32;102560.84;5016467;28;19926;-73
2021/03/29 10:00:45;;;;;;;;;;;;;;;15.96;39.52;102566.16;4983593;28;19926;-74
2021/03/29 10:03:30;;;;;;;;;;;;;;;16.05;39.73;102554.03;5012047;28;20400;-76
2021/03/29 10:06:16;;;;;;;;;;;;;;;16.32;39.31;102559.63;5026756;28;19925;-79
2021/03/29 10:08:54;;;;;;;;;;;;;;;16.51;38.86;102554.84;5061650;28;19924;-76
2021/03/29 10:11:28;;;;;;;;;;;;;;;16.79;38.50;102564.00;5080608;28;19931;-76
2021/03/29 10:14:16;;;;;;;;;;;;;;;16.51;38.60;102557.63;5063128;28;20395;-79
2021/03/29 10:17:13;;;;;;;;;;;;;;;16.58;38.72;102560.00;5079663;28;19929;-80
2021/03/29 10:19:52;;;;;;;;;;;;;;;16.70;38.54;102560.31;5079359;28;19925;-77
2021/03/29 10:26:34;;;;;;;;;;;;;;;16.80;38.08;102554.53;5076791;28;19928;-77
2021/03/29 10:29:02;;;;;;;;;;;;;;;16.72;38.00;102558.84;5077714;28;19924;-72
2021/03/29 10:31:33;;;;;;;;;;;;;;;16.95;37.98;102553.34;5079038;28;19939;-76
2021/03/29 10:34:00;;;;;;;;;;;;;;;16.99;37.82;102555.22;5045765;28;19925;-80
2021/03/29 10:36:30;;;;;;;;;;;;;;;16.94;37.89;102546.16;5074424;28;19924;-80
2021/03/29 10:38:57;;;;;;;;;;;;;;;17.14;37.12;102548.50;5080755;28;19932;-79
2021/03/29 10:41:25;;;;;;;;;;;;;;;17.41;37.22;102546.44;5064090;28;19924;-78
2021/03/29 10:43:58;;;;;;;;;;;;;;;17.65;36.80;102555.38;5086659;28;19930;-82
2021/03/29 10:46:32;;;;;;;;;;;;;;;17.46;37.20;102549.16;5068509;28;19932;-74
2021/03/29 10:48:58;;;;;;;;;;;;;;;17.35;37.17;102544.91;5055180;28;19924;-83
2021/03/29 10:51:29;;;;;;;;;;;;;;;17.41;36.97;102540.06;5080918;28;19924;-77
2021/03/29 10:53:57;;;;;;;;;;;;;;;17.65;36.87;102541.44;5079314;28;20287;-78
2021/03/29 10:56:24;;;;;;;;;;;;;;;17.71;36.17;102537.34;5082279;28;19928;-73
2021/03/29 10:59:00;;;;;;;;;;;;;;;18.14;35.47;102534.00;5078173;28;19925;-76
2021/03/29 11:01:43;;;;;;;;;;;;;;;18.17;35.44;102528.63;5079404;28;19928;-79
2021/03/29 11:04:10;;;;;;;;;;;;;;;18.12;35.35;102523.19;5074267;28;19931;-81
2021/03/29 11:06:39;;;;;;;;;;;;;;;18.39;35.30;102533.31;5077233;28;20394;-78
2021/03/29 11:09:09;;;;;;;;;;;;;;;18.52;34.16;102530.44;5076684;28;19934;-76
2021/03/29 11:11:39;;;;;;;;;;;;;;;19.02;33.35;102528.13;5060406;28;19944;-78
2021/03/29 11:14:08;;;;;;;;;;;;;;;18.53;32.53;102529.28;5077776;28;19929;-80
2021/03/29 11:16:41;;;;;;;;;;;;;;;18.46;33.17;102523.34;5077389;28;19925;-81
2021/03/29 11:19:13;;;;;;;;;;;;;;;18.30;33.94;102510.13;5059185;28;19935;-76
2021/03/29 11:21:40;;;;;;;;;;;;;;;18.56;34.11;102511.91;5058065;28;19932;-76
2021/03/29 11:24:25;;;;;;;;;;;;;;;18.64;34.30;102510.28;5061100;28;19924;-74
2021/03/29 11:26:52;;;;;;;;;;;;;;;18.46;34.84;102508.59;5057511;28;20295;-74
2021/03/29 11:29:22;;;;;;;;;;;;;;;18.89;34.37;102504.75;5075391;28;19924;-74
2021/03/29 11:31:50;;;;;;;;;;;;;;;18.73;34.53;102503.56;5091425;28;19925;-75
2021/03/29 11:34:17;;;;;;;;;;;;;;;18.81;34.01;102501.97;5056377;28;19925;-78
2021/03/29 11:36:44;;;;;;;;;;;;;;;18.75;34.10;102503.25;5058326;28;20000;-75
2021/03/29 11:39:11;;;;;;;;;;;;;;;18.77;34.45;102503.75;5039916;28;19931;-74
2021/03/29 11:41:57;;;;;;;;;;;;;;;18.76;34.27;102502.09;5081883;28;19924;-76
2021/03/29 11:44:24;;;;;;;;;;;;;;;18.87;34.27;102498.69;5056541;28;20395;-73
2021/03/29 11:46:53;;;;;;;;;;;;;;;18.97;34.50;102498.34;5075057;28;19928;-74
2021/03/29 11:49:20;;;;;;;;;;;;;;;18.76;34.24;102488.13;5074050;28;19931;-77
2021/03/29 11:51:48;;;;;;;;;;;;;;;18.88;34.55;102491.13;5057133;28;19924;-74
2021/03/29 11:54:16;;;;;;;;;;;;;;;18.92;34.73;102492.94;5073119;28;19924;-80
2021/03/29 11:56:45;;;;;;;;;;;;;;;18.98;34.80;102490.81;5075952;28;19924;-79
2021/03/29 11:59:15;;;;;;;;;;;;;;;19.21;34.50;102489.50;5058016;28;19931;-76
2021/03/29 12:01:53;;;;;;;;;;;;;;;19.81;32.83;102487.47;5057668;28;19925;-79
2021/03/29 12:04:37;;;;;;;;;;;;;;;19.65;33.55;102482.75;5063239;28;20410;-80
2021/03/29 12:07:13;;;;;;;;;;;;;;;19.66;32.68;102482.44;5079855;28;19932;-78
2021/03/29 12:12:47;;;;;;;;;;;;;;;19.87;32.28;102485.34;5063668;28;19932;-80
2021/03/29 12:15:16;;;;;;;;;;;;;;;19.51;31.78;102491.31;5077874;28;19924;-83
2021/03/29 12:18:11;;;;;;;;;;;;;;;19.67;32.29;102484.06;5081609;28;19927;-81
2021/03/29 12:20:44;;;;;;;;;;;;;;;19.32;32.28;102476.88;5059049;28;19932;-78
2021/03/29 12:23:11;;;;;;;;;;;;;;;19.50;32.39;102472.09;5058436;28;19924;-79
2021/03/29 12:25:38;;;;;;;;;;;;;;;19.52;30.77;102465.03;5036197;28;19924;-75
2021/03/29 12:28:08;;;;;;;;;;;;;;;19.51;30.61;102468.94;5055009;28;19925;-78
2021/03/29 12:30:38;;;;;;;;;;;;;;;19.72;31.63;102463.47;5053174;28;20322;-74
2021/03/29 12:33:11;;;;;;;;;;;;;;;19.95;30.88;102464.91;5052351;28;20372;-73
2021/03/29 12:35:43;;;;;;;;;;;;;;;19.88;31.16;102457.03;5036269;28;19951;-78
2021/03/29 12:38:10;;;;;;;;;;;;;;;19.88;30.92;102456.19;5037317;28;19932;-76
2021/03/29 12:41:05;;;;;;;;;;;;;;;19.90;31.60;102457.53;5053483;28;19921;-79
2021/03/29 12:43:36;;;;;;;;;;;;;;;20.04;30.89;102441.34;5035572;28;19932;-79
2021/03/29 12:46:24;;;;;;;;;;;;;;;20.17;30.88;102445.09;5040431;28;20261;-75
2021/03/29 12:48:51;;;;;;;;;;;;;;;20.09;30.73;102452.34;5052642;28;19947;-76
2021/03/29 12:51:30;;;;;;;;;;;;;;;20.39;30.00;102449.59;5038458;28;19925;-76
2021/03/29 12:58:35;;;;;;;;;;;;;;;20.80;29.35;102446.88;5051460;28;19928;-77
2021/03/29 13:01:07;;;;;;;;;;;;;;;20.70;29.32;102439.69;5034882;28;19924;-81
2021/03/29 13:03:42;;;;;;;;;;;;;;;20.66;29.30;102438.69;5053365;28;19925;-77
2021/03/29 13:06:35;;;;;;;;;;;;;;;20.65;29.21;102439.06;5022008;28;19925;-80
2021/03/29 13:09:04;;;;;;;;;;;;;;;20.27;29.59;102439.13;5084847;28;20367;-79
2021/03/29 13:11:31;;;;;;;;;;;;;;;20.45;29.68;102437.84;5051826;28;19932;-79
2021/03/29 13:14:01;;;;;;;;;;;;;;;20.49;29.63;102435.19;5020866;28;19925;-77
2021/03/29 13:16:31;;;;;;;;;;;;;;;20.51;29.11;102430.06;5049055;28;19924;-73
2021/03/29 13:18:57;;;;;;;;;;;;;;;20.55;29.08;102431.06;5035160;28;19925;-78
2021/03/29 13:21:28;;;;;;;;;;;;;;;20.72;29.11;102423.34;5035735;28;19925;-77
2021/03/29 13:23:55;;;;;;;;;;;;;;;20.80;28.07;102424.47;5051970;28;19932;-79
2021/03/29 13:30:52;;;;;;;;;;;;;;;21.27;27.93;102415.47;5035317;28;19929;-76
2021/03/29 13:33:19;;;;;;;;;;;;;;;21.22;27.62;102407.28;5035225;28;20048;-77
2021/03/29 13:35:52;;;;;;;;;;;;;;;20.96;27.67;102403.03;5037633;28;19925;-80
2021/03/29 13:38:26;;;;;;;;;;;;;;;21.27;27.32;102397.03;5032295;28;19929;-76
2021/03/29 13:45:07;;;;;;;;;;;;;;;21.27;27.70;102395.03;5039473;28;19921;-78
2021/03/29 13:47:33;;;;;;;;;;;;;;;21.27;27.31;102391.44;5032286;28;19929;-79
2021/03/29 13:50:01;;;;;;;;;;;;;;;21.02;27.13;102390.50;5034861;28;19932;-76
2021/03/29 13:52:31;;;;;;;;;;;;;;;20.85;27.09;102379.44;5033730;28;19936;-76
2021/03/29 13:54:59;;;;;;;;;;;;;;;21.05;26.96;102393.44;5031802;28;19933;-76
2021/03/29 13:57:35;;;;;;;;;;;;;;;21.00;27.13;102378.81;5032769;28;19925;-72
2021/03/29 14:00:05;;;;;;;;;;;;;;;21.17;26.80;102387.06;5019644;28;19925;-73
2021/03/29 14:02:32;;;;;;;;;;;;;;;21.43;26.70;102384.81;5017910;28;20249;-76
2021/03/29 14:05:09;;;;;;;;;;;;;;;21.43;26.87;102362.38;5041502;28;19936;-77